Time;durP1;ratioP1;P1;durP2;ratioP2;P2;SDS_P1;SDS_P2;PMS_P1;PMS_P2;Temp;Humidity;BMP_temperature;BMP_pressure;BME280_temperature;BME280_humidity;BME280_pressure;Samples;Min_cycle;Max_cycle;Signal;HPM_P1;HPM_P2
2022/12/02 00:02:34;;;;;;;15.37;11.03;;;2.40;99.90;2.20;101457.00;;;;4978753;28;88773;-69
2022/12/02 00:05:32;;;;;;;24.23;13.07;;;2.50;99.90;2.10;101459.00;;;;4989297;27;87841;-69
2022/12/02 00:08:28;;;;;;;18.90;12.00;;;2.50;99.90;2.10;101450.00;;;;4979981;27;88060;-69
2022/12/02 00:10:57;;;;;;;20.10;13.00;;;2.50;99.90;2.20;101445.00;;;;4980829;27;88538;-68
2022/12/02 00:13:40;;;;;;;22.40;12.13;;;2.90;99.90;2.20;101436.00;;;;4988449;27;87926;-68
2022/12/02 00:16:22;;;;;;;15.07;11.03;;;2.40;99.90;2.10;101442.00;;;;4978627;27;88117;-69
2022/12/02 00:18:49;;;;;;;15.73;11.70;;;2.40;99.90;2.10;101439.00;;;;4991242;27;88012;-68
2022/12/02 00:21:14;;;;;;;16.47;11.00;;;2.40;99.90;2.10;101435.00;;;;4992990;27;88753;-68
2022/12/02 00:23:40;;;;;;;27.47;13.43;;;2.50;99.90;2.20;101431.00;;;;4989112;27;98098;-69
2022/12/02 00:26:06;;;;;;;19.27;10.97;;;2.90;99.90;2.20;101435.00;;;;4989751;28;91415;-67
2022/12/02 00:28:32;;;;;;;14.97;11.77;;;2.50;99.90;2.10;101436.00;;;;4990523;27;118507;-67
2022/12/02 00:30:57;;;;;;;20.00;12.47;;;2.50;99.90;2.20;101431.00;;;;4990965;28;89680;-68
2022/12/02 00:33:23;;;;;;;19.43;12.03;;;2.50;99.90;2.20;101431.00;;;;4989192;27;106408;-69
2022/12/02 00:35:49;;;;;;;18.47;12.60;;;2.40;99.90;2.20;101433.00;;;;4987905;27;108806;-68
2022/12/02 00:38:14;;;;;;;23.20;12.77;;;2.30;99.90;2.20;101428.00;;;;4989388;27;118843;-68
2022/12/02 00:40:40;;;;;;;14.73;11.33;;;2.40;99.90;2.10;101426.00;;;;4990523;27;117898;-68
2022/12/02 00:48:35;;;;;;;23.07;12.70;;;2.40;99.90;2.10;101424.00;;;;4991145;28;88736;-68
2022/12/02 00:51:02;;;;;;;21.00;12.50;;;2.40;99.90;2.10;101414.00;;;;4992683;27;88074;-69
2022/12/02 00:53:27;;;;;;;17.63;10.07;;;2.40;99.90;2.10;101424.00;;;;4991271;27;88861;-69
2022/12/02 00:55:53;;;;;;;17.03;11.13;;;2.30;99.90;2.10;101418.00;;;;4989092;27;108603;-69
2022/12/02 00:58:19;;;;;;;18.97;12.63;;;2.40;99.90;2.10;101418.00;;;;4990050;27;116267;-69
2022/12/02 01:00:45;;;;;;;17.40;12.10;;;2.40;99.90;2.10;101410.00;;;;4989878;27;87915;-68
2022/12/02 01:03:10;;;;;;;16.23;12.33;;;2.40;99.90;2.10;101415.00;;;;4989092;27;87925;-68
2022/12/02 01:05:36;;;;;;;20.53;10.83;;;2.40;99.90;2.20;101417.00;;;;4988164;27;108803;-69
2022/12/02 01:08:02;;;;;;;17.50;12.60;;;2.70;99.90;2.20;101412.00;;;;4989120;27;90750;-69
2022/12/02 01:10:27;;;;;;;20.80;12.50;;;2.40;99.90;2.20;101416.00;;;;4991582;27;108855;-69
2022/12/02 01:12:53;;;;;;;18.90;12.80;;;2.40;99.90;2.10;101414.00;;;;4992013;28;111854;-68
2022/12/02 01:15:19;;;;;;;22.37;11.97;;;2.40;99.90;2.10;101421.00;;;;4977700;28;109345;-68
2022/12/02 01:17:44;;;;;;;17.13;12.57;;;2.40;99.90;2.10;101422.00;;;;4990370;27;120011;-69
2022/12/02 01:20:11;;;;;;;20.60;12.47;;;2.30;99.90;2.10;101414.00;;;;4989087;28;118069;-68
2022/12/02 01:22:37;;;;;;;20.50;12.47;;;2.40;99.90;2.20;101419.00;;;;4989916;27;104383;-68
2022/12/02 01:25:03;;;;;;;19.67;12.27;;;2.40;99.90;2.10;101414.00;;;;4988535;27;107456;-68
2022/12/02 01:27:28;;;;;;;18.83;12.07;;;2.40;99.90;2.10;101410.00;;;;4990451;28;104641;-69
2022/12/02 01:29:54;;;;;;;20.47;11.97;;;2.50;99.90;2.10;101405.00;;;;4991092;27;115269;-68
2022/12/02 01:32:22;;;;;;;20.10;11.73;;;2.40;99.90;2.10;101409.00;;;;4971216;27;112312;-69
2022/12/02 01:34:48;;;;;;;19.33;11.23;;;2.40;99.90;2.10;101404.00;;;;4989071;28;87300;-68
2022/12/02 01:37:14;;;;;;;19.13;11.00;;;2.40;99.90;2.10;101413.00;;;;4990300;27;87945;-68
2022/12/02 01:39:40;;;;;;;16.37;11.63;;;2.50;99.90;2.10;101402.00;;;;4991233;27;117689;-67
2022/12/02 01:42:05;;;;;;;23.73;11.63;;;3.00;99.90;2.20;101395.00;;;;4988021;27;113664;-68
2022/12/02 01:44:32;;;;;;;23.47;12.70;;;2.40;99.90;2.20;101387.00;;;;4992447;27;107880;-67
2022/12/02 01:46:58;;;;;;;20.70;11.27;;;2.50;99.90;2.20;101387.00;;;;4985880;27;118787;-69
2022/12/02 01:49:24;;;;;;;13.97;11.20;;;2.50;99.90;2.20;101389.00;;;;4976693;28;101300;-69
2022/12/02 01:51:50;;;;;;;16.47;11.47;;;2.40;99.90;2.10;101388.00;;;;4976929;28;87845;-69
2022/12/02 01:54:15;;;;;;;20.47;12.93;;;2.40;99.90;2.10;101390.00;;;;4976105;28;88748;-68
2022/12/02 01:56:41;;;;;;;16.93;12.40;;;2.40;99.90;2.10;101394.00;;;;4987231;28;89068;-70
2022/12/02 01:59:12;;;;;;;21.77;12.73;;;2.40;99.90;2.10;101391.00;;;;4976090;27;117196;-69
2022/12/02 02:01:38;;;;;;;18.70;11.00;;;2.40;99.90;2.10;101393.00;;;;4959644;28;87867;-69
2022/12/02 02:04:04;;;;;;;19.00;12.27;;;2.20;99.90;2.10;101387.00;;;;4988027;27;87871;-67
2022/12/02 02:06:37;;;;;;;21.20;11.80;;;2.30;99.90;2.10;101388.00;;;;4978965;27;89644;-70
2022/12/02 02:09:06;;;;;;;14.77;10.03;;;2.50;99.90;2.10;101389.00;;;;4987987;27;87922;-68
2022/12/02 02:11:33;;;;;;;25.23;10.67;;;2.40;99.90;2.10;101396.00;;;;4976208;28;88801;-68
2022/12/02 02:14:00;;;;;;;16.17;10.77;;;2.40;99.90;2.10;101385.00;;;;4993008;27;87621;-68
2022/12/02 02:16:26;;;;;;;16.13;12.40;;;2.40;99.90;2.10;101392.00;;;;4988593;27;88483;-70
2022/12/02 02:18:52;;;;;;;15.97;10.20;;;2.50;99.90;2.10;101391.00;;;;4958780;28;91375;-69
2022/12/02 02:21:25;;;;;;;19.20;12.60;;;2.30;99.90;2.10;101383.00;;;;4979541;28;113237;-69
2022/12/02 02:23:50;;;;;;;17.97;10.77;;;2.40;99.90;2.10;101383.00;;;;4963344;27;89026;-68
2022/12/02 02:26:16;;;;;;;17.07;11.17;;;2.40;99.90;2.10;101395.00;;;;4991616;27;117630;-68
2022/12/02 02:28:42;;;;;;;13.97;9.07;;;2.40;99.90;2.10;101389.00;;;;4988340;28;117078;-69
2022/12/02 02:31:08;;;;;;;16.23;10.40;;;2.40;99.90;2.10;101383.00;;;;4987298;27;113329;-68
2022/12/02 02:33:35;;;;;;;18.57;9.27;;;2.50;99.90;2.10;101388.00;;;;4991228;27;107285;-69
2022/12/02 02:36:02;;;;;;;15.60;10.97;;;2.90;99.90;2.10;101384.00;;;;4992768;27;88354;-67
2022/12/02 02:38:29;;;;;;;21.30;11.13;;;2.40;99.90;2.10;101396.00;;;;4993535;27;111066;-68
2022/12/02 02:40:55;;;;;;;15.87;9.17;;;2.30;99.90;2.10;101391.00;;;;4994513;27;87848;-69
2022/12/02 02:43:24;;;;;;;18.43;10.40;;;2.30;99.90;2.10;101380.00;;;;4995088;27;107368;-68
2022/12/02 02:45:50;;;;;;;12.97;10.77;;;3.30;99.90;2.10;101399.00;;;;4993893;27;110961;-69
2022/12/02 02:48:17;;;;;;;19.90;10.43;;;3.40;99.90;2.10;101393.00;;;;4991203;28;104886;-69
2022/12/02 02:50:46;;;;;;;16.80;9.57;;;2.30;99.90;2.10;101385.00;;;;4979107;27;98130;-68
2022/12/02 02:53:14;;;;;;;16.80;10.60;;;2.90;99.90;2.10;101379.00;;;;4995264;27;87816;-68
2022/12/02 02:55:41;;;;;;;19.03;9.03;;;2.30;99.90;2.10;101382.00;;;;4979899;27;89634;-69
2022/12/02 02:58:18;;;;;;;15.40;10.20;;;2.30;99.90;2.10;101390.00;;;;4980067;28;88930;-68
2022/12/02 03:00:56;;;;;;;12.37;8.70;;;2.30;99.90;2.10;101379.00;;;;4990929;27;87808;-69
2022/12/02 03:03:26;;;;;;;20.67;10.57;;;2.30;99.90;2.10;101386.00;;;;4992979;28;89107;-68
2022/12/02 03:05:54;;;;;;;15.67;9.30;;;2.70;99.90;2.10;101388.00;;;;4994162;27;89026;-69
2022/12/02 03:08:22;;;;;;;18.57;11.17;;;2.40;99.90;2.10;101384.00;;;;4991828;28;97139;-68
2022/12/02 03:10:49;;;;;;;15.83;9.83;;;2.40;99.90;2.10;101369.00;;;;4978693;27;87884;-68
2022/12/02 03:13:15;;;;;;;17.87;10.20;;;2.30;99.90;2.10;101373.00;;;;4993162;27;87262;-69
2022/12/02 03:15:41;;;;;;;19.03;10.10;;;3.10;99.90;2.10;101378.00;;;;4993943;28;117816;-68
2022/12/02 03:18:07;;;;;;;20.77;10.07;;;2.40;99.90;2.10;101374.00;;;;4977802;28;118923;-69
2022/12/02 03:20:32;;;;;;;20.23;10.43;;;2.40;99.90;2.10;101364.00;;;;4981678;28;113117;-68
2022/12/02 03:23:00;;;;;;;17.53;9.83;;;2.30;99.90;2.00;101378.00;;;;4993778;27;87831;-69
2022/12/02 03:25:26;;;;;;;16.23;9.53;;;2.30;99.90;2.00;101359.00;;;;4991267;27;88244;-70
2022/12/02 03:27:52;;;;;;;14.57;9.27;;;2.20;99.90;2.00;101352.00;;;;4976621;27;104332;-67
2022/12/02 03:30:17;;;;;;;10.97;8.80;;;2.20;99.90;2.00;101360.00;;;;4992709;27;109805;-69
2022/12/02 03:32:43;;;;;;;17.23;10.40;;;1.60;99.90;2.00;101365.00;;;;4990972;27;98559;-68
2022/12/02 03:35:09;;;;;;;13.97;8.43;;;2.20;99.90;2.00;101358.00;;;;4992470;27;118144;-69
2022/12/02 03:37:35;;;;;;;14.03;8.10;;;2.20;99.90;2.00;101368.00;;;;4977515;28;117164;-68
2022/12/02 03:40:01;;;;;;;14.43;7.93;;;2.20;99.90;2.00;101350.00;;;;4992405;27;87849;-68
2022/12/02 03:42:26;;;;;;;15.97;9.60;;;2.20;99.90;2.00;101355.00;;;;4994476;28;87556;-68
2022/12/02 03:44:52;;;;;;;13.63;8.50;;;2.10;99.90;2.00;101357.00;;;;4993320;27;95245;-69
2022/12/02 03:47:18;;;;;;;11.27;8.20;;;2.30;99.90;2.00;101360.00;;;;4975936;27;119125;-69
2022/12/02 03:49:44;;;;;;;10.00;7.57;;;3.00;99.90;1.90;101339.00;;;;4994453;28;109930;-69
2022/12/02 03:52:10;;;;;;;12.97;8.27;;;2.30;99.90;1.90;101345.00;;;;4992388;27;88809;-69
2022/12/02 03:54:37;;;;;;;13.33;8.03;;;2.20;99.90;1.90;101355.00;;;;4989809;27;114518;-70
2022/12/02 03:57:06;;;;;;;13.80;8.50;;;3.20;99.90;1.90;101359.00;;;;4989264;27;117445;-68
2022/12/02 03:59:32;;;;;;;13.87;8.77;;;2.60;99.90;1.90;101358.00;;;;4989290;27;102252;-69
2022/12/02 04:01:58;;;;;;;13.73;7.67;;;2.20;99.90;1.90;101366.00;;;;4979030;28;108880;-68
2022/12/02 04:04:23;;;;;;;11.83;7.23;;;2.10;99.90;1.90;101373.00;;;;4990074;27;115206;-68
2022/12/02 04:06:49;;;;;;;16.03;9.13;;;2.10;99.90;1.90;101361.00;;;;4990007;27;117398;-69
2022/12/02 04:09:15;;;;;;;11.17;8.50;;;2.20;99.90;1.90;101351.00;;;;4990490;27;111518;-70
2022/12/02 04:11:40;;;;;;;14.67;9.80;;;2.10;99.90;1.90;101344.00;;;;4992010;27;109194;-69
2022/12/02 04:14:06;;;;;;;15.33;9.20;;;2.60;99.90;1.90;101338.00;;;;4991327;27;116774;-69
2022/12/02 04:16:32;;;;;;;19.33;10.47;;;2.20;99.90;1.90;101329.00;;;;4990872;27;119428;-67
2022/12/02 04:18:57;;;;;;;12.57;8.67;;;2.20;99.90;1.90;101331.00;;;;4990980;28;110225;-68
2022/12/02 04:21:26;;;;;;;13.47;8.13;;;2.10;99.90;1.90;101329.00;;;;4993222;27;87961;-67
2022/12/02 04:23:52;;;;;;;11.00;8.50;;;3.00;99.90;1.90;101334.00;;;;4991784;27;88034;-68
2022/12/02 04:26:19;;;;;;;16.23;10.53;;;2.20;99.90;1.90;101344.00;;;;4991989;28;87763;-67
2022/12/02 04:28:44;;;;;;;9.37;8.13;;;2.20;99.90;1.90;101338.00;;;;4990659;27;87738;-67
2022/12/02 04:31:10;;;;;;;18.93;9.63;;;2.20;99.90;1.90;101337.00;;;;4991885;27;108558;-69
2022/12/02 04:33:36;;;;;;;15.60;10.03;;;2.20;99.90;1.90;101337.00;;;;4989750;27;118366;-67
2022/12/02 04:36:01;;;;;;;16.73;10.20;;;2.10;99.90;1.90;101336.00;;;;4991600;27;118994;-69
2022/12/02 04:38:27;;;;;;;18.50;9.67;;;2.20;99.90;1.90;101343.00;;;;4991731;28;99845;-68
2022/12/02 04:40:53;;;;;;;14.23;9.73;;;2.30;99.90;1.90;101339.00;;;;4993105;27;108598;-70
2022/12/02 04:43:18;;;;;;;18.37;10.50;;;2.20;99.90;1.90;101327.00;;;;4976095;28;117956;-69
2022/12/02 04:45:44;;;;;;;14.13;10.70;;;2.10;99.90;1.90;101331.00;;;;4990534;27;88708;-68
2022/12/02 04:48:10;;;;;;;21.43;12.30;;;3.10;99.90;1.90;101333.00;;;;4990743;27;112566;-69
2022/12/02 04:50:35;;;;;;;16.20;8.63;;;2.10;99.90;1.80;101322.00;;;;4991084;27;103498;-68
2022/12/02 04:53:01;;;;;;;17.80;10.53;;;2.10;99.90;1.80;101329.00;;;;4989434;28;116428;-69
2022/12/02 04:55:27;;;;;;;15.63;10.80;;;2.10;99.90;1.80;101331.00;;;;4989873;27;88092;-69
2022/12/02 04:57:53;;;;;;;13.13;8.93;;;2.00;99.90;1.80;101323.00;;;;4988892;28;104616;-69
2022/12/02 05:00:19;;;;;;;17.80;11.03;;;2.00;99.90;1.80;101315.00;;;;4989077;28;87744;-68
2022/12/02 05:02:45;;;;;;;12.20;8.47;;;2.00;99.90;1.80;101323.00;;;;4989085;27;92909;-69
2022/12/02 05:05:11;;;;;;;14.30;9.80;;;2.00;99.90;1.80;101327.00;;;;4989034;28;117444;-68
2022/12/02 05:07:36;;;;;;;15.67;9.37;;;1.20;99.90;1.80;101330.00;;;;4991478;27;87656;-69
2022/12/02 05:10:03;;;;;;;14.13;9.37;;;2.00;99.90;1.70;101325.00;;;;4990607;27;108257;-69
2022/12/02 05:12:29;;;;;;;14.37;8.63;;;2.00;99.90;1.70;101313.00;;;;4994108;27;89521;-68
2022/12/02 05:14:54;;;;;;;11.80;7.97;;;1.90;99.90;1.70;101312.00;;;;4992158;27;117289;-69
2022/12/02 05:17:20;;;;;;;15.07;9.40;;;1.90;99.90;1.70;101323.00;;;;4991148;27;110794;-68
2022/12/02 05:19:46;;;;;;;11.97;8.33;;;2.00;99.90;1.60;101317.00;;;;4992055;28;87975;-70
2022/12/02 05:22:12;;;;;;;14.03;8.83;;;1.90;99.90;1.60;101323.00;;;;4980486;28;89100;-70
2022/12/02 05:24:39;;;;;;;14.50;10.17;;;1.90;99.90;1.60;101311.00;;;;4989578;27;119772;-69
2022/12/02 05:27:05;;;;;;;14.13;9.10;;;1.90;99.90;1.60;101320.00;;;;4988284;27;88019;-69
2022/12/02 05:29:30;;;;;;;17.27;9.60;;;1.90;99.90;1.60;101340.00;;;;4987540;27;108698;-69
2022/12/02 05:31:56;;;;;;;16.17;10.20;;;1.90;99.90;1.50;101325.00;;;;4988682;27;103069;-68
2022/12/02 05:34:22;;;;;;;27.83;12.70;;;1.80;99.90;1.50;101335.00;;;;4987507;27;118633;-68
2022/12/02 05:36:47;;;;;;;18.73;10.10;;;1.80;99.90;1.50;101335.00;;;;4988638;27;112153;-70
2022/12/02 05:39:13;;;;;;;15.40;10.30;;;1.70;99.90;1.40;101326.00;;;;4990863;27;106667;-69
2022/12/02 05:41:39;;;;;;;14.00;10.83;;;1.70;99.90;1.40;101338.00;;;;4989953;27;116172;-70
2022/12/02 05:44:32;;;;;;;17.07;11.57;;;1.60;99.90;1.40;101332.00;;;;4976085;28;88005;-69
2022/12/02 05:47:01;;;;;;;18.37;11.03;;;1.70;99.90;1.40;101333.00;;;;4983453;27;98623;-68
2022/12/02 05:49:27;;;;;;;20.93;10.87;;;1.70;99.90;1.40;101331.00;;;;4973982;28;88480;-69
2022/12/02 05:51:59;;;;;;;17.87;10.23;;;1.70;99.90;1.40;101340.00;;;;4988013;27;117717;-66
2022/12/02 05:54:26;;;;;;;13.70;11.00;;;1.70;99.90;1.40;101335.00;;;;4988478;27;88441;-68
2022/12/02 05:56:52;;;;;;;23.20;10.83;;;1.70;99.90;1.30;101324.00;;;;4985045;27;102187;-68
2022/12/02 05:59:20;;;;;;;17.60;10.80;;;1.60;99.90;1.30;101339.00;;;;4986114;27;88088;-68
2022/12/02 06:01:53;;;;;;;16.70;9.83;;;1.60;99.90;1.30;101338.00;;;;4987029;27;92586;-67
2022/12/02 06:04:24;;;;;;;21.60;10.40;;;1.60;99.90;1.30;101339.00;;;;4991304;27;88445;-69
2022/12/02 06:06:52;;;;;;;14.90;9.27;;;1.60;99.90;1.30;101348.00;;;;4973600;28;87748;-68
2022/12/02 06:09:30;;;;;;;16.20;9.10;;;1.80;99.90;1.30;101338.00;;;;4971571;28;87767;-70
2022/12/02 06:11:56;;;;;;;20.70;10.63;;;1.60;99.90;1.30;101340.00;;;;4977361;28;99044;-68
2022/12/02 06:14:27;;;;;;;18.97;10.93;;;1.60;99.90;1.30;101341.00;;;;4977203;27;118824;-68
2022/12/02 06:17:01;;;;;;;12.63;8.43;;;1.50;99.90;1.30;101344.00;;;;4960528;28;88180;-68
2022/12/02 06:19:30;;;;;;;13.70;9.60;;;1.60;99.90;1.30;101337.00;;;;4994386;27;88060;-67
2022/12/02 06:21:59;;;;;;;19.67;10.43;;;1.60;99.90;1.30;101334.00;;;;4975597;28;88625;-67
2022/12/02 06:24:33;;;;;;;17.57;10.93;;;1.50;99.90;1.30;101329.00;;;;4993383;27;89553;-68
2022/12/02 06:27:02;;;;;;;25.47;12.07;;;2.30;99.90;1.20;101337.00;;;;4991423;27;112656;-67
2022/12/02 06:29:29;;;;;;;16.50;9.67;;;1.50;99.90;1.20;101341.00;;;;4973893;28;87584;-68
2022/12/02 06:31:58;;;;;;;13.17;8.47;;;1.50;99.90;1.10;101342.00;;;;4994322;27;88729;-67
2022/12/02 06:34:39;;;;;;;14.53;10.63;;;1.50;99.90;1.10;101351.00;;;;4989824;27;87902;-68
2022/12/02 06:37:22;;;;;;;18.13;10.73;;;1.50;99.90;1.00;101350.00;;;;4992985;27;88791;-68
2022/12/02 06:39:55;;;;;;;16.47;11.30;;;1.40;99.90;1.00;101339.00;;;;4974822;28;87797;-69
2022/12/02 06:42:28;;;;;;;19.00;10.90;;;1.30;99.90;0.90;101342.00;;;;4976209;28;98053;-68
2022/12/02 06:45:26;;;;;;;19.60;11.73;;;1.30;99.90;0.90;101345.00;;;;4958387;28;88042;-67
2022/12/02 06:48:26;;;;;;;19.10;11.33;;;1.10;99.90;0.80;101357.00;;;;4963505;28;87794;-68
2022/12/02 06:50:53;;;;;;;20.17;9.77;;;1.20;99.90;0.80;101349.00;;;;4973626;28;87719;-66
2022/12/02 06:53:35;;;;;;;24.80;12.13;;;1.10;99.90;0.70;101355.00;;;;4959880;28;109362;-66
2022/12/02 06:56:10;;;;;;;21.20;12.07;;;1.10;99.90;0.70;101358.00;;;;4974979;28;88609;-66
2022/12/02 06:58:41;;;;;;;15.57;9.53;;;1.10;99.90;0.80;101351.00;;;;4951983;28;88289;-67
2022/12/02 07:01:06;;;;;;;19.43;9.90;;;1.90;99.90;0.70;101346.00;;;;4972921;28;87805;-67
2022/12/02 07:04:02;;;;;;;15.87;9.17;;;1.10;99.90;0.70;101346.00;;;;4975013;28;89568;-68
2022/12/02 07:06:29;;;;;;;14.87;10.73;;;1.10;99.90;0.70;101349.00;;;;4975755;28;88897;-69
2022/12/02 07:09:05;;;;;;;21.47;10.33;;;1.10;99.90;0.70;101350.00;;;;4966747;28;87988;-67
2022/12/02 07:11:48;;;;;;;17.40;9.43;;;1.10;99.90;0.70;101356.00;;;;4972594;28;87758;-67
2022/12/02 07:14:37;;;;;;;19.00;12.13;;;1.90;99.90;0.70;101345.00;;;;4959706;28;88113;-66
2022/12/02 07:17:14;;;;;;;21.60;11.47;;;1.00;99.90;0.70;101358.00;;;;4969875;28;110348;-67
2022/12/02 07:19:45;;;;;;;17.07;11.53;;;1.00;99.90;0.70;101344.00;;;;4970679;28;87851;-68
2022/12/02 07:22:24;;;;;;;23.47;12.97;;;1.00;99.90;0.70;101338.00;;;;4974349;28;87406;-66
2022/12/02 07:25:03;;;;;;;16.80;9.80;;;1.10;99.90;0.70;101338.00;;;;4957837;28;109092;-66
2022/12/02 07:27:33;;;;;;;14.43;11.77;;;1.10;99.90;0.70;101348.00;;;;4966099;28;88294;-65
2022/12/02 07:30:00;;;;;;;14.70;10.97;;;1.20;99.90;0.70;101341.00;;;;4957063;28;93422;-68
2022/12/02 07:32:26;;;;;;;17.70;10.77;;;1.00;99.90;0.70;101336.00;;;;4974660;28;87782;-67
2022/12/02 07:34:52;;;;;;;18.10;10.53;;;1.00;99.90;0.70;101330.00;;;;4971714;28;111997;-67
2022/12/02 07:37:18;;;;;;;24.73;12.60;;;0.90;99.90;0.70;101335.00;;;;4970952;28;117209;-68
2022/12/02 07:39:44;;;;;;;21.97;11.77;;;1.00;99.90;0.70;101345.00;;;;4972033;28;88106;-67
2022/12/02 07:42:12;;;;;;;16.40;10.77;;;1.20;99.90;0.70;101330.00;;;;4989386;27;88529;-66
2022/12/02 07:44:39;;;;;;;18.77;10.10;;;0.90;99.90;0.70;101339.00;;;;4990179;27;88852;-66
2022/12/02 07:47:05;;;;;;;17.23;10.93;;;1.00;99.90;0.70;101335.00;;;;4993996;27;88662;-67
2022/12/02 07:49:31;;;;;;;19.30;11.73;;;1.00;99.90;0.80;101352.00;;;;4993538;27;104631;-67
2022/12/02 07:51:57;;;;;;;21.20;10.30;;;1.00;99.90;0.70;101350.00;;;;4991507;27;108353;-68
2022/12/02 07:54:23;;;;;;;18.43;10.43;;;1.10;99.90;0.70;101349.00;;;;4990927;27;89839;-66
2022/12/02 07:56:48;;;;;;;18.30;10.53;;;1.00;99.90;0.80;101347.00;;;;4990224;27;92277;-66
2022/12/02 07:59:14;;;;;;;21.13;12.70;;;1.00;99.90;0.80;101355.00;;;;4986702;27;113105;-66
2022/12/02 08:01:40;;;;;;;17.83;10.83;;;1.60;99.90;0.80;101355.00;;;;4990431;27;88520;-67
2022/12/02 08:04:06;;;;;;;19.13;11.00;;;1.10;99.90;0.80;101339.00;;;;4988121;27;88967;-66
2022/12/02 08:06:31;;;;;;;17.37;10.27;;;1.00;99.90;0.80;101348.00;;;;4990476;27;117670;-67
2022/12/02 08:08:57;;;;;;;17.50;11.73;;;1.10;99.90;0.80;101351.00;;;;4992886;27;99392;-68
2022/12/02 08:11:23;;;;;;;15.40;10.73;;;1.10;99.90;0.80;101361.00;;;;4993092;27;107926;-66
2022/12/02 08:13:48;;;;;;;19.43;11.87;;;1.00;99.90;0.80;101355.00;;;;4990988;27;118052;-69
2022/12/02 08:16:14;;;;;;;20.50;13.80;;;1.20;99.90;0.80;101362.00;;;;4989234;27;87867;-68
2022/12/02 08:18:40;;;;;;;16.43;9.77;;;1.10;99.90;0.80;101352.00;;;;4988586;27;111488;-67
2022/12/02 08:21:05;;;;;;;20.93;11.53;;;1.10;99.90;0.90;101360.00;;;;4995102;27;107582;-67
2022/12/02 08:23:31;;;;;;;21.33;12.83;;;1.10;99.90;0.90;101361.00;;;;4993000;27;117628;-69
2022/12/02 08:25:57;;;;;;;23.93;11.57;;;1.20;99.90;0.90;101348.00;;;;4987255;27;117243;-68
2022/12/02 08:28:22;;;;;;;17.60;11.13;;;1.50;99.90;0.90;101341.00;;;;4993445;27;113816;-67
2022/12/02 08:30:48;;;;;;;20.67;10.97;;;1.10;99.90;0.90;101345.00;;;;4995520;27;104110;-66
2022/12/02 08:33:14;;;;;;;26.00;11.60;;;1.20;99.90;0.90;101337.00;;;;4991742;27;95317;-68
2022/12/02 08:35:39;;;;;;;18.33;10.87;;;1.20;99.90;0.90;101347.00;;;;4979061;27;87550;-69
2022/12/02 08:38:06;;;;;;;22.47;11.47;;;1.20;99.90;0.90;101343.00;;;;4990992;27;90526;-69
2022/12/02 08:40:33;;;;;;;15.90;10.07;;;1.20;99.90;0.90;101346.00;;;;4994550;27;88443;-68
2022/12/02 08:43:01;;;;;;;20.87;10.93;;;1.10;99.90;0.90;101349.00;;;;4990435;27;89342;-68
2022/12/02 08:45:28;;;;;;;14.50;10.93;;;0.50;99.90;1.00;101357.00;;;;4991228;27;88184;-66
2022/12/02 08:47:54;;;;;;;20.97;12.40;;;1.10;99.90;0.90;101349.00;;;;4989684;27;88012;-69
2022/12/02 08:50:19;;;;;;;17.97;10.87;;;1.30;99.90;1.00;101352.00;;;;4991375;27;87947;-68
2022/12/02 08:52:45;;;;;;;12.57;9.03;;;1.60;99.90;1.00;101356.00;;;;4992681;27;88792;-68
2022/12/02 08:55:11;;;;;;;14.03;8.10;;;1.30;99.90;1.00;101347.00;;;;4974083;28;98128;-68
2022/12/02 08:57:37;;;;;;;13.33;8.43;;;1.30;99.90;1.00;101360.00;;;;4992627;27;99516;-69
2022/12/02 09:00:05;;;;;;;12.10;9.17;;;0.70;99.90;1.00;101356.00;;;;4988774;27;87145;-68
2022/12/02 09:02:31;;;;;;;17.93;9.33;;;1.30;99.90;1.00;101362.00;;;;4974326;27;88241;-69
2022/12/02 09:04:57;;;;;;;11.80;8.13;;;1.30;99.90;1.00;101359.00;;;;4992930;27;92030;-69
2022/12/02 09:07:23;;;;;;;14.60;7.83;;;1.30;99.90;1.00;101365.00;;;;4988993;27;110969;-67
2022/12/02 09:09:48;;;;;;;16.93;8.30;;;1.30;99.90;1.10;101368.00;;;;4991183;27;108643;-69
2022/12/02 09:12:14;;;;;;;11.10;8.57;;;1.30;99.90;1.10;101362.00;;;;4991153;27;88911;-68
2022/12/02 09:14:40;;;;;;;11.50;8.30;;;1.30;99.90;1.00;101350.00;;;;4989950;27;97703;-68
2022/12/02 09:17:05;;;;;;;15.67;9.33;;;1.40;99.90;1.10;101364.00;;;;4994405;27;110524;-68
2022/12/02 09:19:31;;;;;;;12.50;8.17;;;2.10;99.90;1.00;101357.00;;;;4994572;27;107383;-68
2022/12/02 09:21:57;;;;;;;16.23;9.03;;;1.30;99.90;1.10;101364.00;;;;4991509;27;118733;-70
2022/12/02 09:24:22;;;;;;;16.40;7.37;;;1.30;99.90;1.00;101350.00;;;;4990948;27;117866;-68
2022/12/02 09:26:48;;;;;;;10.00;7.67;;;1.20;99.90;1.10;101352.00;;;;4987772;27;109161;-68
2022/12/02 09:29:14;;;;;;;12.37;8.67;;;1.40;99.90;1.00;101352.00;;;;4987874;27;109683;-68
2022/12/02 09:31:39;;;;;;;11.63;7.33;;;1.40;99.90;1.00;101355.00;;;;4989888;27;90030;-69
2022/12/02 09:34:05;;;;;;;13.50;8.23;;;1.50;99.90;1.10;101340.00;;;;4990979;27;118888;-67
2022/12/02 09:36:31;;;;;;;12.70;8.10;;;1.40;99.90;1.10;101344.00;;;;4992784;27;103112;-67
2022/12/02 09:38:56;;;;;;;15.83;9.43;;;2.20;99.90;1.00;101345.00;;;;4987816;27;96666;-69
2022/12/02 09:41:22;;;;;;;17.77;8.53;;;1.30;99.90;1.00;101335.00;;;;4974564;28;117437;-68
2022/12/02 09:43:48;;;;;;;12.13;9.93;;;1.30;99.90;1.00;101345.00;;;;4991381;27;118219;-69
2022/12/02 09:46:14;;;;;;;17.33;9.87;;;1.30;99.90;1.00;101339.00;;;;4995259;27;89392;-67
2022/12/02 09:48:40;;;;;;;11.43;8.80;;;1.30;99.90;1.00;101336.00;;;;4967814;27;109088;-69
2022/12/02 09:51:08;;;;;;;15.80;9.93;;;1.40;99.90;1.00;101336.00;;;;4993016;28;117518;-68
2022/12/02 09:53:38;;;;;;;15.47;10.33;;;0.80;99.90;1.00;101335.00;;;;4980247;27;88634;-68
2022/12/02 09:56:12;;;;;;;16.00;10.23;;;1.40;99.90;1.10;101332.00;;;;4977871;28;88815;-68
2022/12/02 09:58:38;;;;;;;17.43;9.43;;;1.40;99.90;1.10;101334.00;;;;4994479;27;87742;-68
2022/12/02 10:01:09;;;;;;;20.83;10.77;;;1.30;99.90;1.10;101332.00;;;;4992817;27;117953;-68
2022/12/02 10:03:35;;;;;;;17.67;10.30;;;1.40;99.90;1.10;101323.00;;;;4992999;27;87849;-69
2022/12/02 10:06:07;;;;;;;17.40;8.17;;;1.40;99.90;1.10;101334.00;;;;4995871;27;94007;-68
2022/12/02 10:08:33;;;;;;;17.33;11.03;;;1.40;99.90;1.10;101323.00;;;;4995374;27;87839;-67
2022/12/02 10:10:59;;;;;;;15.97;8.97;;;1.40;99.90;1.10;101327.00;;;;4995829;27;116788;-68
2022/12/02 10:13:26;;;;;;;14.10;8.53;;;1.30;99.90;1.10;101321.00;;;;4980776;28;87908;-68
2022/12/02 10:15:53;;;;;;;15.20;8.67;;;1.40;99.90;1.00;101323.00;;;;4981386;28;87917;-68
2022/12/02 10:18:23;;;;;;;17.93;10.83;;;1.30;99.90;1.00;101326.00;;;;4994979;28;87939;-69
2022/12/02 10:20:49;;;;;;;13.90;9.13;;;1.30;99.90;1.00;101314.00;;;;4976208;28;99648;-68
2022/12/02 10:23:20;;;;;;;21.10;9.20;;;1.40;99.90;1.00;101316.00;;;;4990936;27;89858;-68
2022/12/02 10:25:57;;;;;;;12.93;7.27;;;1.30;99.90;1.00;101312.00;;;;4996753;27;87900;-68
2022/12/02 10:28:31;;;;;;;12.93;9.13;;;1.40;99.90;1.00;101313.00;;;;4994622;27;87727;-69
2022/12/02 10:31:04;;;;;;;13.00;8.40;;;1.30;99.90;1.00;101313.00;;;;4994302;27;87993;-69
2022/12/02 10:33:34;;;;;;;12.17;8.50;;;2.30;99.90;1.00;101307.00;;;;4995491;27;88299;-68
2022/12/02 10:36:00;;;;;;;12.20;8.57;;;1.30;99.90;1.00;101301.00;;;;4982211;27;87932;-68
2022/12/02 10:38:37;;;;;;;11.20;7.73;;;1.30;99.90;1.00;101300.00;;;;4993651;27;87081;-67
2022/12/02 10:41:19;;;;;;;12.70;8.27;;;1.40;99.90;1.10;101309.00;;;;4993994;27;89558;-68
2022/12/02 10:43:50;;;;;;;14.63;7.73;;;1.30;99.90;1.10;101294.00;;;;4991184;27;88996;-68
2022/12/02 10:46:21;;;;;;;16.40;9.10;;;1.30;99.90;1.10;101303.00;;;;4991192;27;92991;-68
2022/12/02 10:48:48;;;;;;;13.17;7.87;;;1.40;99.90;1.10;101307.00;;;;4992845;27;101650;-67
2022/12/02 10:51:16;;;;;;;11.17;8.37;;;1.40;99.90;1.10;101294.00;;;;4989029;27;108307;-68
2022/12/02 10:53:44;;;;;;;13.93;8.40;;;1.40;99.90;1.10;101297.00;;;;4991047;27;108048;-69
2022/12/02 10:56:18;;;;;;;13.10;9.03;;;1.40;99.90;1.10;101300.00;;;;4990536;27;89049;-69
2022/12/02 10:58:44;;;;;;;14.83;7.90;;;1.30;99.90;1.10;101297.00;;;;4992173;28;87576;-69